This is the latest recevied weather packets stored in our database for station/object NE8U. If no packets are shown the sender has not sent any weather packets the latest 1 day(s).
| Time | Temp. | Humidity | Pressure | Rain* | Wind** | Luminosity | Snow |
|---|---|---|---|---|---|---|---|
| 1778022356 | 22.78° C | 32% | 1011.4 hPa | 0 mm | 0 m/s | 122 W/m² | - |
| 1778022052 | 23.33° C | 32% | 1011.3 hPa | 0 mm | 0 m/s | 168 W/m² | - |
| 1778021749 | 22.78° C | 33% | 1011.5 hPa | 0 mm | 0 m/s | 172 W/m² | - |
| 1778021445 | 23.89° C | 32% | 1011.4 hPa | 0 mm | 0 m/s | 116 W/m² | - |
| 1778021142 | 24.44° C | 30% | 1011.4 hPa | 0 mm | 1.79 m/s, 229° | 591 W/m² | - |
| 1778020840 | 24.44° C | 31% | 1011.5 hPa | 0 mm | 0 m/s | 268 W/m² | - |
| 1778020537 | 23.33° C | 32% | 1011.6 hPa | 0 mm | 0 m/s | 131 W/m² | - |
| 1778020233 | 23.89° C | 32% | 1011.7 hPa | 0 mm | 0 m/s | 145 W/m² | - |
| 1778019929 | 23.89° C | 31% | 1011.6 hPa | 0 mm | 0 m/s | 288 W/m² | - |
| 1778019625 | 23.33° C | 31% | 1011.9 hPa | 0 mm | 0 m/s | 538 W/m² | - |
| 1778019323 | 23.33° C | 32% | 1011.7 hPa | 0 mm | 0 m/s | 147 W/m² | - |
| 1778019019 | 24.44° C | 31% | 1011.6 hPa | 0 mm | 0.45 m/s, 217° | 232 W/m² | - |
| 1778018717 | 22.78° C | 34% | 1011.9 hPa | 0 mm | 0 m/s | 207 W/m² | - |
| 1778018415 | 23.33° C | 34% | 1011.9 hPa | 0 mm | 0 m/s | 147 W/m² | - |
| 1778018112 | 23.33° C | 34% | 1012 hPa | 0 mm | 0 m/s | 564 W/m² | - |
| 1778017810 | 23.89° C | 33% | 1012 hPa | 0 mm | 0 m/s | 197 W/m² | - |
| 1778017508 | 24.44° C | 32% | 1012.2 hPa | 0 mm | 0 m/s | 818 W/m² | - |
| 1778017204 | 24.44° C | 33% | 1012.1 hPa | 0 mm | 0 m/s | 257 W/m² | - |
| 1778016902 | 25.56° C | 33% | 1012.2 hPa | 0 mm | 0 m/s | 237 W/m² | - |
| 1778016598 | 24.44° C | 35% | 1012.2 hPa | 0 mm | 0 m/s | 218 W/m² | - |
| 1778016295 | 24.44° C | 36% | 1012.4 hPa | 0 mm | 0 m/s | 777 W/m² | - |
| 1778015991 | 24.44° C | 37% | 1012.3 hPa | 0 mm | 1.79 m/s, 209° | 229 W/m² | - |
| 1778015689 | 24.44° C | 38% | 1012.3 hPa | 0 mm | 1.34 m/s, 273° | 826 W/m² | - |
| 1778015385 | 23.89° C | 40% | 1012.4 hPa | 0 mm | 2.68 m/s, 251° | 299 W/m² | - |
| 1778015082 | 23.89° C | 39% | 1012.3 hPa | 0 mm | 2.24 m/s, 256° | 223 W/m² | - |
* Rain latest hour (hover to see other rain measurements)
** Current wind speed in m/s (hover to see current wind gust speed)